MV Sea Wolf — WCW6738 — position and weather

sailwx.info

Track history (hours):
 
Tides and Currents Weather Stations Pressure Air Temp Water Temp Dewpoint Dewpoint Depression Visibility Wind Speed Wind Dir Waves Ship Positions

MV Sea Wolf

Owner: SEA WOLF MARINE TOWING & TRANSPORTATION, Bayonne, NJ. More information available from US FCC via Universal Licensing System and Coast Guard Vessel Documentation Center.

Last reported at 2017-Jun-22 13:30 UTC. Time now 2017-Jun-22 14:24 UTC.
Position N 40°49' W 073°59'.

Length 66 m; draft 10 m.

MMSI: 367002350.

Date/timePositionNaut miles runAvg speedWind from/ knotsBaromVisibWave heightAir tempDewpointWater temp
2017-Jun-22 13:30N 40°49' W 073°59'2 3.3
2017-Jun-22 13:00N 40°47' W 073°60'3 5.1
2017-Jun-22 12:30N 40°45' W 074°01'2 3.2
2017-Jun-22 12:00N 40°46' W 074°00'3 5.2
2017-Jun-22 11:30N 40°49' W 073°59'0 0.0
2017-Jun-22 11:00N 40°49' W 073°59'1 2.5
2017-Jun-22 10:30N 40°47' W 073°59'2 3.2
2017-Jun-22 10:00N 40°46' W 074°00'0 0.6
2017-Jun-22 09:30N 40°46' W 074°00'0 0.0
2017-Jun-22 09:00N 40°46' W 074°00'0 0.0
2017-Jun-22 08:30N 40°46' W 074°00'0 0.0
2017-Jun-22 08:00N 40°46' W 074°00'0 0.0
2017-Jun-22 07:30N 40°46' W 074°00'0 0.0
2017-Jun-22 07:00N 40°46' W 074°00'0 0.0
2017-Jun-22 06:30N 40°46' W 074°00'0 0.0
2017-Jun-22 06:00N 40°46' W 074°00'0 0.0
2017-Jun-22 05:30N 40°46' W 074°00'1 1.5
2017-Jun-22 05:00N 40°47' W 073°60'2 3.6
2017-Jun-22 04:30N 40°49' W 073°59'0 0.0
2017-Jun-22 04:00N 40°49' W 073°59'1 2.4
2017-Jun-22 03:30N 40°48' W 073°59'1 2.8
2017-Jun-22 03:00N 40°46' W 074°00'0 0.0
2017-Jun-22 02:30N 40°46' W 074°00'0 0.0
2017-Jun-22 02:00N 40°46' W 074°00'0 0.0
2017-Jun-22 01:30N 40°46' W 074°00'0 0.0
2017-Jun-22 01:00N 40°46' W 074°00'0 0.0
2017-Jun-22 00:30N 40°46' W 074°00'0 0.0
2017-Jun-22 00:00N 40°46' W 074°00'0 0.0
2017-Jun-21 23:30N 40°46' W 074°00'0 0.0
2017-Jun-21 23:00N 40°46' W 074°00'0 0.0
2017-Jun-21 22:30N 40°46' W 074°00'0 0.6
2017-Jun-21 22:00N 40°46' W 074°00'0 0.7
2017-Jun-21 21:31N 40°46' W 074°00'0 0.0
2017-Jun-21 21:01N 40°46' W 074°00'0 0.0
2017-Jun-21 20:30N 40°46' W 074°00'0 0.0
2017-Jun-21 20:00N 40°46' W 074°00'0 0.0
2017-Jun-21 19:30N 40°46' W 074°00'1 3.0
2017-Jun-21 19:00N 40°45' W 074°01'4 8.1
2017-Jun-21 18:30N 40°41' W 074°02'1 2.8
2017-Jun-21 18:00N 40°40' W 074°04'4 8.6
2017-Jun-21 17:30N 40°44' W 074°01'2 4.6
2017-Jun-21 17:00N 40°46' W 074°00'0 0.1
2017-Jun-21 16:30N 40°46' W 074°00'0 0.0
2017-Jun-21 16:00N 40°46' W 074°00'0 0.1
2017-Jun-21 15:31N 40°46' W 074°00'0 0.0
2017-Jun-21 15:00N 40°46' W 074°00'0 0.0
2017-Jun-21 14:30N 40°46' W 074°00'0 0.0
2017-Jun-21 13:30N 40°46' W 074°00'0 0.0
2017-Jun-21 13:01N 40°46' W 074°00'0 0.0
2017-Jun-21 12:30N 40°46' W 074°00'0 0.0
2017-Jun-21 12:00N 40°46' W 074°00'0 0.0
2017-Jun-21 11:31N 40°46' W 074°00'0 0.0
2017-Jun-21 11:00N 40°46' W 074°00'0 0.0
2017-Jun-21 10:31N 40°46' W 074°00'0 0.6
2017-Jun-21 10:00N 40°46' W 074°00'0 0.0
2017-Jun-21 09:30N 40°46' W 074°00'0 0.6
2017-Jun-21 09:00N 40°46' W 074°00'0 0.0
2017-Jun-21 08:30N 40°46' W 074°00'0 0.0
2017-Jun-21 08:00N 40°46' W 074°00'0 0.0
2017-Jun-21 07:30N 40°46' W 074°00'0 0.0
2017-Jun-21 07:00N 40°46' W 074°00'0 0.0
2017-Jun-21 06:30N 40°46' W 074°00'0 0.0
2017-Jun-21 06:00N 40°46' W 074°00'0 0.0
2017-Jun-21 05:30N 40°46' W 074°00'0 0.0
2017-Jun-21 05:00N 40°46' W 074°00'0 0.0
2017-Jun-21 04:30N 40°46' W 074°00'0 0.0
2017-Jun-21 04:00N 40°46' W 074°00'0 0.0
2017-Jun-21 03:30N 40°46' W 074°00'0 0.0
2017-Jun-21 03:00N 40°46' W 074°00'0 0.0
2017-Jun-21 02:30N 40°46' W 074°00'0 0.0
2017-Jun-21 02:00N 40°46' W 074°00'0 0.0
2017-Jun-21 01:30N 40°46' W 074°00'0 0.0
2017-Jun-21 01:00N 40°46' W 074°00'0 0.0
2017-Jun-21 00:30N 40°46' W 074°00'0 0.0
2017-Jun-21 00:00N 40°46' W 074°00'0 0.0
2017-Jun-20 23:30N 40°46' W 074°00'0 0.3
2017-Jun-20 23:00N 40°46' W 074°00'0 0.3
2017-Jun-20 22:30N 40°46' W 074°00'0 0.1
2017-Jun-20 22:00N 40°46' W 074°00'0 0.1
2017-Jun-20 21:30N 40°46' W 074°00'0 0.0
2017-Jun-20 21:00N 40°46' W 074°00'0 0.0
2017-Jun-20 20:30N 40°46' W 074°00'0 0.1
2017-Jun-20 20:00N 40°46' W 074°00'0 0.0
2017-Jun-20 19:30N 40°46' W 074°00'0 0.1
2017-Jun-20 19:00N 40°46' W 074°00'0 0.0
2017-Jun-20 18:31N 40°46' W 074°00'0 0.0
2017-Jun-20 18:00N 40°46' W 074°00'0 0.0
2017-Jun-20 17:30N 40°46' W 074°00'1 2.3
2017-Jun-20 17:00N 40°45' W 074°01'1 2.2
2017-Jun-20 16:30N 40°46' W 074°00'0 0.0
2017-Jun-20 16:00N 40°46' W 074°00'0 0.0
2017-Jun-20 15:30N 40°46' W 074°00'0 0.0
2017-Jun-20 15:00N 40°46' W 074°00'0 0.4
2017-Jun-20 14:30N 40°46' W 074°00'0 0.2
2017-Jun-20 13:30N 40°46' W 074°00'0 0.6
2017-Jun-20 13:00N 40°46' W 074°00'0 0.6
2017-Jun-20 12:30N 40°46' W 074°00'0 0.0
2017-Jun-20 12:00N 40°46' W 074°00'0 0.1
2017-Jun-20 11:30N 40°46' W 074°00'0 0.1
2017-Jun-20 11:00N 40°46' W 074°00'0 0.0
2017-Jun-20 10:30N 40°46' W 074°00'0 0.6
2017-Jun-20 10:00N 40°46' W 074°00'0 0.6
2017-Jun-20 09:30N 40°46' W 074°00'0 0.0
2017-Jun-20 09:00N 40°46' W 074°00'0 0.0
2017-Jun-20 08:31N 40°46' W 074°00'0 0.0
2017-Jun-20 08:00N 40°46' W 074°00'0 0.0
2017-Jun-20 07:30N 40°46' W 074°00'0 0.0
2017-Jun-20 07:01N 40°46' W 074°00'0 0.0
2017-Jun-20 06:30N 40°46' W 074°00'0 0.0
2017-Jun-20 06:00N 40°46' W 074°00'0 0.0
2017-Jun-20 05:31N 40°46' W 074°00'0 0.0
2017-Jun-20 05:01N 40°46' W 074°00'0 0.0
2017-Jun-20 04:30N 40°46' W 074°00'0 0.0
2017-Jun-20 04:00N 40°46' W 074°00'0 0.0
2017-Jun-20 03:31N 40°46' W 074°00'0 0.0
2017-Jun-20 03:01N 40°46' W 074°00'0 0.0
2017-Jun-20 02:31N 40°46' W 074°00'0 0.0
2017-Jun-20 02:00N 40°46' W 074°00'0 0.0
2017-Jun-20 01:30N 40°46' W 074°00'0 0.0
2017-Jun-20 01:01N 40°46' W 074°00'0 0.0
2017-Jun-20 00:30N 40°46' W 074°00'0 0.0
2017-Jun-20 00:00N 40°46' W 074°00'0 0.1
2017-Jun-19 23:30N 40°46' W 074°00'0 0.1
2017-Jun-19 23:00N 40°46' W 074°00'0 0.0
2017-Jun-19 22:30N 40°46' W 074°00'0 0.1
2017-Jun-19 22:00N 40°46' W 074°00'0 0.1
2017-Jun-19 21:30N 40°46' W 074°00'0 0.0
2017-Jun-19 21:00N 40°46' W 074°00'0 0.0
2017-Jun-19 20:30N 40°46' W 074°00'0 0.0
2017-Jun-19 20:00N 40°46' W 074°00'0 0.3
2017-Jun-19 19:30N 40°46' W 073°60'2 4.8
2017-Jun-19 19:00N 40°49' W 073°59'3 5.1
2017-Jun-19 18:30N 40°46' W 074°00'0 0.1
2017-Jun-19 18:01N 40°46' W 074°00'1 2.8
2017-Jun-19 17:30N 40°48' W 073°59'1 2.8
2017-Jun-19 17:00N 40°46' W 074°00'0 0.5
2017-Jun-19 16:31N 40°46' W 074°00'0 0.4
2017-Jun-19 16:00N 40°46' W 074°00'0 0.0
2017-Jun-19 15:30N 40°46' W 074°00'0 0.0
2017-Jun-19 15:00N 40°46' W 074°00'0 0.0
2017-Jun-19 14:30N 40°46' W 074°00'0 0.2
2017-Jun-19 13:30N 40°46' W 074°00'0 0.5
2017-Jun-19 13:00N 40°46' W 074°00'0 0.0
2017-Jun-19 12:30N 40°46' W 074°00'0 0.0
2017-Jun-19 12:01N 40°46' W 074°00'0 0.0
2017-Jun-19 11:30N 40°46' W 074°00'0 0.0
2017-Jun-19 11:00N 40°46' W 074°00'0 0.6
2017-Jun-19 10:30N 40°46' W 074°00'0 0.0
2017-Jun-19 10:00N 40°46' W 074°00'0 0.6
2017-Jun-19 09:30N 40°46' W 074°00'0 0.0
2017-Jun-19 09:00N 40°46' W 074°00'0 0.0
2017-Jun-19 08:30N 40°46' W 074°00'0 0.0
2017-Jun-19 08:00N 40°46' W 074°00'0 0.0
2017-Jun-19 07:30N 40°46' W 074°00'0 0.0
2017-Jun-19 07:00N 40°46' W 074°00'0 0.0
2017-Jun-19 06:30N 40°46' W 074°00'0 0.0
2017-Jun-19 06:00N 40°46' W 074°00'0 0.0
2017-Jun-19 05:30N 40°46' W 074°00'0 0.0
2017-Jun-19 05:00N 40°46' W 074°00'0 0.0
2017-Jun-19 04:30N 40°46' W 074°00'0 0.0
2017-Jun-19 04:00N 40°46' W 074°00'0 0.0
2017-Jun-19 03:30N 40°46' W 074°00'0 0.0
2017-Jun-19 03:00N 40°46' W 074°00'0 0.0
2017-Jun-19 02:30N 40°46' W 074°00'0 0.0
2017-Jun-19 02:00N 40°46' W 074°00'0 0.0
2017-Jun-19 01:30N 40°46' W 074°00'0 0.0
2017-Jun-19 01:00N 40°46' W 074°00'0 0.0
2017-Jun-19 00:30N 40°46' W 074°00'0 0.0
2017-Jun-19 00:00N 40°46' W 074°00'0 0.0
2017-Jun-18 23:30N 40°46' W 074°00'0 0.0
2017-Jun-18 23:00N 40°46' W 074°00'0 0.0
2017-Jun-18 22:30N 40°46' W 074°00'0 0.5
2017-Jun-18 22:00N 40°46' W 074°00'0 0.5
2017-Jun-18 21:30N 40°46' W 074°00'0 0.0
2017-Jun-18 21:00N 40°46' W 074°00'0 0.0
2017-Jun-18 20:30N 40°46' W 074°00'0 0.0
2017-Jun-18 20:00N 40°46' W 074°00'0 0.0
2017-Jun-18 19:30N 40°46' W 074°00'0 0.0
2017-Jun-18 19:00N 40°46' W 074°00'0 0.0
2017-Jun-18 18:30N 40°46' W 074°00'0 0.0
2017-Jun-18 18:00N 40°46' W 074°00'0 0.5
2017-Jun-18 17:30N 40°46' W 074°00'2 4.8
2017-Jun-18 17:00N 40°49' W 073°59'0 0.0
2017-Jun-18 16:30N 40°49' W 073°59'0 0.0
2017-Jun-18 16:00N 40°49' W 073°59'3 5.1
2017-Jun-18 15:30N 40°46' W 074°00'0 0.0
2017-Jun-18 15:00N 40°46' W 074°00'0 0.0
2017-Jun-18 14:00N 40°46' W 074°00'0 0.0
2017-Jun-18 13:30N 40°46' W 074°00'0 0.0
2017-Jun-18 13:00N 40°46' W 074°00'0 0.0
2017-Jun-18 12:30N 40°46' W 074°00'0 0.0
2017-Jun-18 12:00N 40°46' W 074°00'0 0.1
2017-Jun-18 11:30N 40°46' W 074°00'0 0.1
2017-Jun-18 11:00N 40°46' W 074°00'0 0.0
2017-Jun-18 10:30N 40°46' W 074°00'2 3.3
2017-Jun-18 10:00N 40°45' W 074°01'2 3.3
2017-Jun-18 09:30N 40°46' W 074°00'0 0.0
2017-Jun-18 09:00N 40°46' W 074°00'0 0.0
2017-Jun-18 08:30N 40°46' W 074°00'0 0.0
2017-Jun-18 08:00N 40°46' W 074°00'0 0.0
2017-Jun-18 07:30N 40°46' W 074°00'0 0.0
2017-Jun-18 07:00N 40°46' W 074°00'0 0.0
2017-Jun-18 06:30N 40°46' W 074°00'0 0.0
2017-Jun-18 06:00N 40°46' W 074°00'2 3.1
2017-Jun-18 05:30N 40°45' W 074°01'4 8.1
2017-Jun-18 05:00N 40°49' W 073°59'1 2.2
2017-Jun-18 04:30N 40°48' W 073°59'1 2.9
2017-Jun-18 04:00N 40°46' W 074°00'0 0.0
2017-Jun-18 03:30N 40°46' W 074°00'0 0.0
2017-Jun-18 03:00N 40°46' W 074°00'0 0.0
2017-Jun-18 02:30N 40°46' W 074°00'0 0.0
2017-Jun-18 02:00N 40°46' W 074°00'0 0.0
2017-Jun-18 01:30N 40°46' W 074°00'0 0.0
2017-Jun-18 01:00N 40°46' W 074°00'0 0.0
2017-Jun-18 00:30N 40°46' W 074°00'0 0.0
2017-Jun-18 00:00N 40°46' W 074°00'0 0.0
2017-Jun-17 23:30N 40°46' W 074°00'0 0.0
2017-Jun-17 23:00N 40°46' W 074°00'0 0.0
2017-Jun-17 22:30N 40°46' W 074°00'0 0.6
2017-Jun-17 22:00N 40°46' W 074°00'0 0.6
2017-Jun-17 21:30N 40°46' W 074°00'2 3.4
2017-Jun-17 21:00N 40°45' W 074°01'2 3.4
2017-Jun-17 20:30N 40°46' W 074°00'0 0.0
2017-Jun-17 20:00N 40°46' W 074°00'0 0.0
2017-Jun-17 19:30N 40°46' W 074°00'0 0.0
2017-Jun-17 19:00N 40°46' W 074°00'0 0.0
2017-Jun-17 18:30N 40°46' W 074°00'0 0.0
2017-Jun-17 18:00N 40°46' W 074°00'0 0.0
2017-Jun-17 17:30N 40°46' W 074°00'0 0.0
2017-Jun-17 17:00N 40°46' W 074°00'0 0.6
2017-Jun-17 16:30N 40°47' W 074°00'0 0.5
2017-Jun-17 16:00N 40°47' W 073°60'2 4.5
2017-Jun-17 15:30N 40°45' W 074°01'2 3.3
2017-Jun-17 15:00N 40°46' W 074°00'0 0.0
2017-Jun-17 14:00N 40°46' W 074°00'0 0.0
2017-Jun-17 13:30N 40°46' W 074°00'0 0.4
2017-Jun-17 13:00N 40°46' W 074°00'1 1.9
2017-Jun-17 12:30N 40°47' W 073°60'0 0.6
2017-Jun-17 12:00N 40°47' W 073°60'0 0.9
2017-Jun-17 11:30N 40°46' W 074°00'0 0.0
2017-Jun-17 11:00N 40°46' W 074°00'0 0.0
2017-Jun-17 10:30N 40°46' W 074°00'0 0.0
2017-Jun-17 10:00N 40°46' W 074°00'0 0.0
2017-Jun-17 09:30N 40°46' W 074°00'0 0.0
2017-Jun-17 09:00N 40°46' W 074°00'0 0.0
2017-Jun-17 08:30N 40°46' W 074°00'0 0.0
2017-Jun-17 08:00N 40°46' W 074°00'0 0.0
2017-Jun-17 07:30N 40°46' W 074°00'0 0.0
2017-Jun-17 07:00N 40°46' W 074°00'0 0.0
2017-Jun-17 06:30N 40°46' W 074°00'0 0.0
2017-Jun-17 06:00N 40°46' W 074°00'0 0.0
2017-Jun-17 05:30N 40°46' W 074°00'0 0.0
2017-Jun-17 05:00N 40°46' W 074°00'0 0.0
2017-Jun-17 04:30N 40°46' W 074°00'0 0.0
2017-Jun-17 04:00N 40°46' W 074°00'0 0.0
2017-Jun-17 03:30N 40°46' W 074°00'0 0.0
2017-Jun-17 03:00N 40°46' W 074°00'0 0.6
2017-Jun-17 02:30N 40°46' W 074°00'2 4.0
2017-Jun-17 02:00N 40°48' W 073°59'3 6.0
2017-Jun-17 01:30N 40°46' W 074°01'3 6.0
2017-Jun-17 01:00N 40°43' W 074°02'3 5.8
2017-Jun-17 00:30N 40°40' W 074°04'2 4.6
2017-Jun-17 00:00N 40°42' W 074°02'4 8.8
2017-Jun-16 23:30N 40°46' W 074°00'0 0.0
2017-Jun-16 23:01N 40°46' W 074°00'0 0.0
2017-Jun-16 22:30N 40°46' W 074°00'0 0.6
2017-Jun-16 22:00N 40°46' W 074°00'4 7.6
2017-Jun-16 21:30N 40°42' W 074°02'2 5.0
2017-Jun-16 21:00N 40°41' W 074°05'0 0.0
2017-Jun-16 20:31N 40°41' W 074°05'0 0.0
2017-Jun-16 20:00N 40°41' W 074°05'0 0.0
2017-Jun-16 19:30N 40°41' W 074°05'0 0.0
2017-Jun-16 19:00N 40°41' W 074°05'0 0.0
2017-Jun-16 18:31N 40°41' W 074°05'0 0.0
2017-Jun-16 18:00N 40°41' W 074°05'0 0.0
2017-Jun-16 17:30N 40°41' W 074°05'0 0.0
2017-Jun-16 17:00N 40°41' W 074°05'0 0.0
2017-Jun-16 16:30N 40°41' W 074°05'0 0.0
2017-Jun-16 16:00N 40°41' W 074°05'0 0.0
2017-Jun-16 15:30N 40°41' W 074°05'0 0.0
2017-Jun-16 15:00N 40°41' W 074°05'3 5.9
2017-Jun-16 14:31N 40°43' W 074°02'3 3.5
2017-Jun-16 13:31N 40°46' W 074°00'0 0.0
2017-Jun-16 13:00N 40°46' W 074°00'0 0.0
2017-Jun-16 12:30N 40°46' W 074°00'0 0.0
2017-Jun-16 12:00N 40°46' W 074°00'0 0.0
2017-Jun-16 11:30N 40°46' W 074°00'0 0.0
2017-Jun-16 11:00N 40°46' W 074°00'0 0.0
2017-Jun-16 10:30N 40°46' W 074°00'0 0.6
2017-Jun-16 10:00N 40°46' W 074°00'0 0.6
2017-Jun-16 09:30N 40°46' W 074°00'0 0.0
2017-Jun-16 09:00N 40°46' W 074°00'0 0.0
2017-Jun-16 08:30N 40°46' W 074°00'0 0.0
2017-Jun-16 08:00N 40°46' W 074°00'0 0.0
2017-Jun-16 07:30N 40°46' W 074°00'0 0.0
2017-Jun-16 07:00N 40°46' W 074°00'0 0.0
2017-Jun-16 06:30N 40°46' W 074°00'0 0.1
2017-Jun-16 06:00N 40°46' W 074°00'0 0.0
2017-Jun-16 05:30N 40°46' W 074°00'0 0.6
2017-Jun-16 05:00N 40°47' W 074°00'1 1.7
2017-Jun-16 04:30N 40°47' W 073°60'1 2.1
2017-Jun-16 04:00N 40°46' W 074°00'0 0.6
2017-Jun-16 03:30N 40°46' W 074°00'0 0.6
2017-Jun-16 03:00N 40°46' W 074°00'3 5.6
2017-Jun-16 02:30N 40°44' W 074°01'4 8.0
2017-Jun-16 02:00N 40°41' W 074°05'2 4.4
2017-Jun-16 01:30N 40°41' W 074°02'5 9.2
2017-Jun-16 01:00N 40°46' W 074°01'3 6.1
2017-Jun-16 00:30N 40°49' W 073°59'3 5.0
2017-Jun-16 00:00N 40°46' W 074°00'0 0.1
2017-Jun-15 23:30N 40°46' W 074°00'0 0.9
2017-Jun-15 23:00N 40°46' W 074°00'0 0.9
2017-Jun-15 22:30N 40°46' W 074°00'0 0.0
2017-Jun-15 22:00N 40°46' W 074°00'0 0.0
2017-Jun-15 21:30N 40°46' W 074°00'0 0.0
2017-Jun-15 21:01N 40°46' W 074°00'0 0.0
2017-Jun-15 20:30N 40°46' W 074°00'0 0.0
2017-Jun-15 20:00N 40°46' W 074°00'2 3.3
2017-Jun-15 19:31N 40°45' W 074°01'2 3.3
2017-Jun-15 19:00N 40°46' W 074°00'0 0.0
2017-Jun-15 18:30N 40°46' W 074°00'0 0.0
2017-Jun-15 18:00N 40°46' W 074°00'0 0.0
2017-Jun-15 17:30N 40°46' W 074°00'0 0.1
2017-Jun-15 17:00N 40°46' W 074°00'0 0.1
2017-Jun-15 16:31N 40°46' W 074°00'0 0.1
2017-Jun-15 16:00N 40°46' W 074°00'0 0.1
2017-Jun-15 15:30N 40°46' W 074°00'2 3.3
2017-Jun-15 15:00N 40°45' W 074°01'2 3.3
2017-Jun-15 14:30N 40°46' W 074°00'0 0.0
2017-Jun-15 13:30N 40°46' W 074°00'0 0.0
2017-Jun-15 12:59N 40°46' W 074°00'0 0.0
2017-Jun-15 12:30N 40°46' W 074°00'1 1.4
2017-Jun-15 12:00N 40°46' W 074°01'1 1.4
2017-Jun-15 11:30N 40°46' W 074°00'0 0.0
2017-Jun-15 11:00N 40°46' W 074°00'2 3.2
2017-Jun-15 10:30N 40°45' W 074°01'2 3.2
2017-Jun-15 10:00N 40°46' W 074°00'0 0.0
2017-Jun-15 09:30N 40°46' W 074°00'0 0.0
2017-Jun-15 09:00N 40°46' W 074°00'0 0.0
2017-Jun-15 08:30N 40°46' W 074°00'0 0.0
2017-Jun-15 08:00N 40°46' W 074°00'0 0.0
2017-Jun-15 07:30N 40°46' W 074°00'0 0.0
2017-Jun-15 07:00N 40°46' W 074°00'0 0.0
2017-Jun-15 06:30N 40°46' W 074°00'0 0.1
2017-Jun-15 06:00N 40°46' W 074°00'0 0.0
2017-Jun-15 05:30N 40°46' W 074°00'2 3.2
2017-Jun-15 05:00N 40°48' W 073°59'1 1.8
2017-Jun-15 04:30N 40°49' W 073°59'0 0.0
2017-Jun-15 04:00N 40°49' W 073°59'1 2.8
2017-Jun-15 03:30N 40°47' W 073°59'1 2.3
2017-Jun-15 03:00N 40°46' W 074°00'0 0.0
2017-Jun-15 02:30N 40°46' W 074°00'0 0.0
2017-Jun-15 02:00N 40°46' W 074°00'0 0.0
2017-Jun-15 01:30N 40°46' W 074°00'0 0.0
2017-Jun-15 01:00N 40°46' W 074°00'0 0.0
2017-Jun-15 00:30N 40°46' W 074°00'0 0.0
2017-Jun-15 00:00N 40°46' W 074°00'0 0.0
2017-Jun-14 23:30N 40°46' W 074°00'0 0.2
2017-Jun-14 23:01N 40°46' W 074°00'0 0.2
2017-Jun-14 22:30N 40°46' W 074°00'0 0.2
2017-Jun-14 22:00N 40°46' W 074°00'0 0.2
2017-Jun-14 21:30N 40°46' W 074°00'0 0.0
2017-Jun-14 21:00N 40°46' W 074°00'0 0.0
2017-Jun-14 20:30N 40°46' W 074°00'0 0.1
2017-Jun-14 20:00N 40°46' W 074°00'0 0.1
2017-Jun-14 19:30N 40°46' W 074°00'1 2.4
2017-Jun-14 19:00N 40°47' W 073°60'1 2.6
2017-Jun-14 18:30N 40°49' W 073°59'2 4.8
2017-Jun-14 18:00N 40°46' W 074°00'0 0.1
2017-Jun-14 17:30N 40°46' W 074°00'0 0.1
2017-Jun-14 17:00N 40°46' W 074°00'2 3.3
2017-Jun-14 16:30N 40°45' W 074°01'2 3.4
2017-Jun-14 16:00N 40°46' W 074°00'3 6.5
2017-Jun-14 15:30N 40°43' W 074°01'3 6.5
2017-Jun-14 15:00N 40°40' W 074°04'1 0.8
2017-Jun-14 14:00N 40°41' W 074°05'0 0.0
2017-Jun-14 13:30N 40°41' W 074°05'2 4.9
2017-Jun-14 13:00N 40°42' W 074°02'510.3
2017-Jun-14 12:30N 40°47' W 074°00'1 2.0
2017-Jun-14 12:00N 40°48' W 073°59'2 3.0
2017-Jun-14 11:30N 40°46' W 074°00'0 0.0
2017-Jun-14 11:00N 40°46' W 074°00'0 0.0
2017-Jun-14 10:30N 40°46' W 074°00'0 0.6
2017-Jun-14 10:00N 40°46' W 074°00'0 0.6
2017-Jun-14 09:30N 40°46' W 074°00'0 0.0
2017-Jun-14 09:00N 40°46' W 074°00'0 0.0
2017-Jun-14 08:30N 40°46' W 074°00'0 0.0
2017-Jun-14 08:00N 40°46' W 074°00'0 0.0
2017-Jun-14 07:30N 40°46' W 074°00'0 0.0
2017-Jun-14 07:00N 40°46' W 074°00'0 0.0
2017-Jun-14 06:30N 40°46' W 074°00'2 3.3
2017-Jun-14 06:00N 40°48' W 073°59'1 1.7
2017-Jun-14 05:31N 40°49' W 073°59'0 0.0
2017-Jun-14 05:00N 40°49' W 073°59'0 0.0
2017-Jun-14 04:31N 40°49' W 073°59'0 0.0
2017-Jun-14 04:00N 40°49' W 073°59'0 0.0
2017-Jun-14 03:30N 40°49' W 073°59'0 0.1
2017-Jun-14 03:01N 40°49' W 073°59'0 0.0
2017-Jun-14 02:30N 40°49' W 073°59'3 5.1
2017-Jun-14 02:00N 40°46' W 074°00'0 0.1
2017-Jun-14 01:30N 40°46' W 074°00'0 0.0
2017-Jun-14 01:00N 40°46' W 074°00'0 0.1
2017-Jun-14 00:30N 40°46' W 074°00'0 0.2
2017-Jun-14 00:01N 40°46' W 074°00'0 0.1
2017-Jun-13 23:31N 40°46' W 074°00'0 0.0
2017-Jun-13 23:00N 40°46' W 074°00'0 0.0
2017-Jun-13 22:30N 40°46' W 074°00'0 0.0
2017-Jun-13 22:00N 40°46' W 074°00'0 0.0
2017-Jun-13 21:30N 40°46' W 074°00'0 0.0
2017-Jun-13 21:00N 40°46' W 074°00'2 4.9
2017-Jun-13 20:31N 40°44' W 074°01'3 6.3
2017-Jun-13 20:01N 40°41' W 074°02'2 3.4
2017-Jun-13 19:30N 40°41' W 074°05'0 0.0
2017-Jun-13 19:00N 40°41' W 074°05'0 0.0
2017-Jun-13 18:31N 40°41' W 074°05'0 0.0
2017-Jun-13 18:00N 40°41' W 074°05'0 0.0
2017-Jun-13 17:30N 40°41' W 074°05'0 0.0
2017-Jun-13 17:00N 40°41' W 074°05'0 0.0
2017-Jun-13 16:31N 40°41' W 074°05'0 0.0
2017-Jun-13 16:01N 40°41' W 074°05'0 0.0
2017-Jun-13 15:31N 40°41' W 074°05'0 0.0
2017-Jun-13 15:01N 40°41' W 074°05'0 0.0
2017-Jun-13 14:00N 40°41' W 074°05'1 1.1
2017-Jun-13 13:31N 40°40' W 074°04'4 7.6
2017-Jun-13 13:00N 40°44' W 074°01'3 5.5
2017-Jun-13 12:30N 40°46' W 074°00'0 0.0
2017-Jun-13 12:00N 40°46' W 074°00'2 3.7
2017-Jun-13 11:30N 40°48' W 073°59'2 3.8
2017-Jun-13 11:01N 40°46' W 074°00'0 0.6
2017-Jun-13 10:30N 40°46' W 074°00'0 0.0
2017-Jun-13 10:00N 40°46' W 074°00'0 0.6
2017-Jun-13 09:31N 40°46' W 074°00'0 0.0
2017-Jun-13 09:00N 40°46' W 074°00'0 0.0
2017-Jun-13 08:30N 40°46' W 074°00'0 0.0
2017-Jun-13 08:00N 40°46' W 074°00'0 0.0
2017-Jun-13 07:30N 40°46' W 074°00'0 0.0
2017-Jun-13 07:00N 40°46' W 074°00'0 0.0
2017-Jun-13 06:30N 40°46' W 074°00'1 1.0
2017-Jun-13 06:00N 40°47' W 073°60'2 4.0
2017-Jun-13 05:30N 40°49' W 073°59'2 4.1
2017-Jun-13 05:00N 40°47' W 073°60'2 4.1
2017-Jun-13 04:30N 40°49' W 073°59'3 5.1
2017-Jun-13 04:00N 40°46' W 074°00'0 0.0
2017-Jun-13 03:30N 40°46' W 074°00'0 0.0
2017-Jun-13 03:00N 40°46' W 074°00'0 0.0
2017-Jun-13 02:30N 40°46' W 074°00'0 0.0
2017-Jun-13 02:00N 40°46' W 074°00'0 0.0
2017-Jun-13 01:30N 40°46' W 074°00'0 0.0
2017-Jun-13 01:00N 40°46' W 074°00'3 5.0
2017-Jun-13 00:30N 40°49' W 073°59'3 5.1
2017-Jun-13 00:00N 40°46' W 074°00'0 0.0
2017-Jun-12 23:30N 40°46' W 074°00'0 0.0
2017-Jun-12 23:00N 40°46' W 074°00'0 0.0
2017-Jun-12 22:30N 40°46' W 074°00'0 0.1
2017-Jun-12 22:00N 40°46' W 074°00'0 0.1
2017-Jun-12 21:30N 40°46' W 074°00'0 0.0
2017-Jun-12 21:00N 40°46' W 074°00'0 0.0
2017-Jun-12 20:30N 40°46' W 074°00'0 0.0
2017-Jun-12 20:00N 40°46' W 074°00'0 0.0
2017-Jun-12 19:30N 40°46' W 074°00'0 0.0
2017-Jun-12 18:59N 40°46' W 074°00'3 5.2
2017-Jun-12 18:30N 40°49' W 073°59'2 3.7
2017-Jun-12 18:00N 40°47' W 073°60'4 7.8
2017-Jun-12 17:30N 40°43' W 074°02'3 6.8
2017-Jun-12 17:00N 40°40' W 074°04'0 0.6
2017-Jun-12 16:30N 40°40' W 074°04'3 6.8
2017-Jun-12 16:00N 40°43' W 074°02'3 6.7
2017-Jun-12 15:30N 40°46' W 074°00'0 0.0
2017-Jun-12 15:00N 40°46' W 074°00'0 0.0
2017-Jun-12 14:30N 40°46' W 074°00'  
Track history (hours):
 
Tides and Currents Weather Stations Pressure Air Temp Water Temp Dewpoint Dewpoint Depression Visibility Wind Speed Wind Dir Waves Ship Positions

MV Sea Wolf

Owner: SEA WOLF MARINE TOWING & TRANSPORTATION, Bayonne, NJ. More information available from US FCC via Universal Licensing System and Coast Guard Vessel Documentation Center.

Last reported at 2017-Jun-22 13:30 UTC. Time now 2017-Jun-22 14:24 UTC.
Position N 40°49' W 073°59'.

Length 66 m; draft 10 m.

MMSI: 367002350.

Date/timePositionNaut miles runAvg speedWind from/ knotsBaromVisibWave heightAir tempDewpointWater temp
2017-Jun-22 13:30N 40°49' W 073°59'2 3.3
2017-Jun-22 13:00N 40°47' W 073°60'3 5.1
2017-Jun-22 12:30N 40°45' W 074°01'2 3.2
2017-Jun-22 12:00N 40°46' W 074°00'3 5.2
2017-Jun-22 11:30N 40°49' W 073°59'0 0.0
2017-Jun-22 11:00N 40°49' W 073°59'1 2.5
2017-Jun-22 10:30N 40°47' W 073°59'2 3.2
2017-Jun-22 10:00N 40°46' W 074°00'0 0.6
2017-Jun-22 09:30N 40°46' W 074°00'0 0.0
2017-Jun-22 09:00N 40°46' W 074°00'0 0.0
2017-Jun-22 08:30N 40°46' W 074°00'0 0.0
2017-Jun-22 08:00N 40°46' W 074°00'0 0.0
2017-Jun-22 07:30N 40°46' W 074°00'0 0.0
2017-Jun-22 07:00N 40°46' W 074°00'0 0.0
2017-Jun-22 06:30N 40°46' W 074°00'0 0.0
2017-Jun-22 06:00N 40°46' W 074°00'0 0.0
2017-Jun-22 05:30N 40°46' W 074°00'1 1.5
2017-Jun-22 05:00N 40°47' W 073°60'2 3.6
2017-Jun-22 04:30N 40°49' W 073°59'0 0.0
2017-Jun-22 04:00N 40°49' W 073°59'1 2.4
2017-Jun-22 03:30N 40°48' W 073°59'1 2.8
2017-Jun-22 03:00N 40°46' W 074°00'0 0.0
2017-Jun-22 02:30N 40°46' W 074°00'0 0.0
2017-Jun-22 02:00N 40°46' W 074°00'0 0.0
2017-Jun-22 01:30N 40°46' W 074°00'0 0.0
2017-Jun-22 01:00N 40°46' W 074°00'0 0.0
2017-Jun-22 00:30N 40°46' W 074°00'0 0.0
2017-Jun-22 00:00N 40°46' W 074°00'0 0.0
2017-Jun-21 23:30N 40°46' W 074°00'0 0.0
2017-Jun-21 23:00N 40°46' W 074°00'0 0.0
2017-Jun-21 22:30N 40°46' W 074°00'0 0.6
2017-Jun-21 22:00N 40°46' W 074°00'0 0.7
2017-Jun-21 21:31N 40°46' W 074°00'0 0.0
2017-Jun-21 21:01N 40°46' W 074°00'0 0.0
2017-Jun-21 20:30N 40°46' W 074°00'0 0.0
2017-Jun-21 20:00N 40°46' W 074°00'0 0.0
2017-Jun-21 19:30N 40°46' W 074°00'1 3.0
2017-Jun-21 19:00N 40°45' W 074°01'4 8.1
2017-Jun-21 18:30N 40°41' W 074°02'1 2.8
2017-Jun-21 18:00N 40°40' W 074°04'4 8.6
2017-Jun-21 17:30N 40°44' W 074°01'2 4.6
2017-Jun-21 17:00N 40°46' W 074°00'0 0.1
2017-Jun-21 16:30N 40°46' W 074°00'0 0.0
2017-Jun-21 16:00N 40°46' W 074°00'0 0.1
2017-Jun-21 15:31N 40°46' W 074°00'0 0.0
2017-Jun-21 15:00N 40°46' W 074°00'0 0.0
2017-Jun-21 14:30N 40°46' W 074°00'0 0.0
2017-Jun-21 13:30N 40°46' W 074°00'0 0.0
2017-Jun-21 13:01N 40°46' W 074°00'0 0.0
2017-Jun-21 12:30N 40°46' W 074°00'0 0.0
2017-Jun-21 12:00N 40°46' W 074°00'0 0.0
2017-Jun-21 11:31N 40°46' W 074°00'0 0.0
2017-Jun-21 11:00N 40°46' W 074°00'0 0.0
2017-Jun-21 10:31N 40°46' W 074°00'0 0.6
2017-Jun-21 10:00N 40°46' W 074°00'0 0.0
2017-Jun-21 09:30N 40°46' W 074°00'0 0.6
2017-Jun-21 09:00N 40°46' W 074°00'0 0.0
2017-Jun-21 08:30N 40°46' W 074°00'0 0.0
2017-Jun-21 08:00N 40°46' W 074°00'0 0.0
2017-Jun-21 07:30N 40°46' W 074°00'0 0.0
2017-Jun-21 07:00N 40°46' W 074°00'0 0.0
2017-Jun-21 06:30N 40°46' W 074°00'0 0.0
2017-Jun-21 06:00N 40°46' W 074°00'0 0.0
2017-Jun-21 05:30N 40°46' W 074°00'0 0.0
2017-Jun-21 05:00N 40°46' W 074°00'0 0.0
2017-Jun-21 04:30N 40°46' W 074°00'0 0.0
2017-Jun-21 04:00N 40°46' W 074°00'0 0.0
2017-Jun-21 03:30N 40°46' W 074°00'0 0.0
2017-Jun-21 03:00N 40°46' W 074°00'0 0.0
2017-Jun-21 02:30N 40°46' W 074°00'0 0.0
2017-Jun-21 02:00N 40°46' W 074°00'0 0.0
2017-Jun-21 01:30N 40°46' W 074°00'0 0.0
2017-Jun-21 01:00N 40°46' W 074°00'0 0.0
2017-Jun-21 00:30N 40°46' W 074°00'0 0.0
2017-Jun-21 00:00N 40°46' W 074°00'0 0.0
2017-Jun-20 23:30N 40°46' W 074°00'0 0.3
2017-Jun-20 23:00N 40°46' W 074°00'0 0.3
2017-Jun-20 22:30N 40°46' W 074°00'0 0.1
2017-Jun-20 22:00N 40°46' W 074°00'0 0.1
2017-Jun-20 21:30N 40°46' W 074°00'0 0.0
2017-Jun-20 21:00N 40°46' W 074°00'0 0.0
2017-Jun-20 20:30N 40°46' W 074°00'0 0.1
2017-Jun-20 20:00N 40°46' W 074°00'0 0.0
2017-Jun-20 19:30N 40°46' W 074°00'0 0.1
2017-Jun-20 19:00N 40°46' W 074°00'0 0.0
2017-Jun-20 18:31N 40°46' W 074°00'0 0.0
2017-Jun-20 18:00N 40°46' W 074°00'0 0.0
2017-Jun-20 17:30N 40°46' W 074°00'1 2.3
2017-Jun-20 17:00N 40°45' W 074°01'1 2.2
2017-Jun-20 16:30N 40°46' W 074°00'0 0.0
2017-Jun-20 16:00N 40°46' W 074°00'0 0.0
2017-Jun-20 15:30N 40°46' W 074°00'0 0.0
2017-Jun-20 15:00N 40°46' W 074°00'0 0.4
2017-Jun-20 14:30N 40°46' W 074°00'0 0.2
2017-Jun-20 13:30N 40°46' W 074°00'0 0.6
2017-Jun-20 13:00N 40°46' W 074°00'0 0.6
2017-Jun-20 12:30N 40°46' W 074°00'0 0.0
2017-Jun-20 12:00N 40°46' W 074°00'0 0.1
2017-Jun-20 11:30N 40°46' W 074°00'0 0.1
2017-Jun-20 11:00N 40°46' W 074°00'0 0.0
2017-Jun-20 10:30N 40°46' W 074°00'0 0.6
2017-Jun-20 10:00N 40°46' W 074°00'0 0.6
2017-Jun-20 09:30N 40°46' W 074°00'0 0.0
2017-Jun-20 09:00N 40°46' W 074°00'0 0.0
2017-Jun-20 08:31N 40°46' W 074°00'0 0.0
2017-Jun-20 08:00N 40°46' W 074°00'0 0.0
2017-Jun-20 07:30N 40°46' W 074°00'0 0.0
2017-Jun-20 07:01N 40°46' W 074°00'0 0.0
2017-Jun-20 06:30N 40°46' W 074°00'0 0.0
2017-Jun-20 06:00N 40°46' W 074°00'0 0.0
2017-Jun-20 05:31N 40°46' W 074°00'0 0.0
2017-Jun-20 05:01N 40°46' W 074°00'0 0.0
2017-Jun-20 04:30N 40°46' W 074°00'0 0.0
2017-Jun-20 04:00N 40°46' W 074°00'0 0.0
2017-Jun-20 03:31N 40°46' W 074°00'0 0.0
2017-Jun-20 03:01N 40°46' W 074°00'0 0.0
2017-Jun-20 02:31N 40°46' W 074°00'0 0.0
2017-Jun-20 02:00N 40°46' W 074°00'0 0.0
2017-Jun-20 01:30N 40°46' W 074°00'0 0.0
2017-Jun-20 01:01N 40°46' W 074°00'0 0.0
2017-Jun-20 00:30N 40°46' W 074°00'0 0.0
2017-Jun-20 00:00N 40°46' W 074°00'0 0.1
2017-Jun-19 23:30N 40°46' W 074°00'0 0.1
2017-Jun-19 23:00N 40°46' W 074°00'0 0.0
2017-Jun-19 22:30N 40°46' W 074°00'0 0.1
2017-Jun-19 22:00N 40°46' W 074°00'0 0.1
2017-Jun-19 21:30N 40°46' W 074°00'0 0.0
2017-Jun-19 21:00N 40°46' W 074°00'0 0.0
2017-Jun-19 20:30N 40°46' W 074°00'0 0.0
2017-Jun-19 20:00N 40°46' W 074°00'0 0.3
2017-Jun-19 19:30N 40°46' W 073°60'2 4.8
2017-Jun-19 19:00N 40°49' W 073°59'3 5.1
2017-Jun-19 18:30N 40°46' W 074°00'0 0.1
2017-Jun-19 18:01N 40°46' W 074°00'1 2.8
2017-Jun-19 17:30N 40°48' W 073°59'1 2.8
2017-Jun-19 17:00N 40°46' W 074°00'0 0.5
2017-Jun-19 16:31N 40°46' W 074°00'0 0.4
2017-Jun-19 16:00N 40°46' W 074°00'0 0.0
2017-Jun-19 15:30N 40°46' W 074°00'0 0.0
2017-Jun-19 15:00N 40°46' W 074°00'0 0.0
2017-Jun-19 14:30N 40°46' W 074°00'0 0.2
2017-Jun-19 13:30N 40°46' W 074°00'0 0.5
2017-Jun-19 13:00N 40°46' W 074°00'0 0.0
2017-Jun-19 12:30N 40°46' W 074°00'0 0.0
2017-Jun-19 12:01N 40°46' W 074°00'0 0.0
2017-Jun-19 11:30N 40°46' W 074°00'0 0.0
2017-Jun-19 11:00N 40°46' W 074°00'0 0.6
2017-Jun-19 10:30N 40°46' W 074°00'0 0.0
2017-Jun-19 10:00N 40°46' W 074°00'0 0.6
2017-Jun-19 09:30N 40°46' W 074°00'0 0.0
2017-Jun-19 09:00N 40°46' W 074°00'0 0.0
2017-Jun-19 08:30N 40°46' W 074°00'0 0.0
2017-Jun-19 08:00N 40°46' W 074°00'0 0.0
2017-Jun-19 07:30N 40°46' W 074°00'0 0.0
2017-Jun-19 07:00N 40°46' W 074°00'0 0.0
2017-Jun-19 06:30N 40°46' W 074°00'0 0.0
2017-Jun-19 06:00N 40°46' W 074°00'0 0.0
2017-Jun-19 05:30N 40°46' W 074°00'0 0.0
2017-Jun-19 05:00N 40°46' W 074°00'0 0.0
2017-Jun-19 04:30N 40°46' W 074°00'0 0.0
2017-Jun-19 04:00N 40°46' W 074°00'0 0.0
2017-Jun-19 03:30N 40°46' W 074°00'0 0.0
2017-Jun-19 03:00N 40°46' W 074°00'0 0.0
2017-Jun-19 02:30N 40°46' W 074°00'0 0.0
2017-Jun-19 02:00N 40°46' W 074°00'0 0.0
2017-Jun-19 01:30N 40°46' W 074°00'0 0.0
2017-Jun-19 01:00N 40°46' W 074°00'0 0.0
2017-Jun-19 00:30N 40°46' W 074°00'0 0.0
2017-Jun-19 00:00N 40°46' W 074°00'0 0.0
2017-Jun-18 23:30N 40°46' W 074°00'0 0.0
2017-Jun-18 23:00N 40°46' W 074°00'0 0.0
2017-Jun-18 22:30N 40°46' W 074°00'0 0.5
2017-Jun-18 22:00N 40°46' W 074°00'0 0.5
2017-Jun-18 21:30N 40°46' W 074°00'0 0.0
2017-Jun-18 21:00N 40°46' W 074°00'0 0.0
2017-Jun-18 20:30N 40°46' W 074°00'0 0.0
2017-Jun-18 20:00N 40°46' W 074°00'0 0.0
2017-Jun-18 19:30N 40°46' W 074°00'0 0.0
2017-Jun-18 19:00N 40°46' W 074°00'0 0.0
2017-Jun-18 18:30N 40°46' W 074°00'0 0.0
2017-Jun-18 18:00N 40°46' W 074°00'0 0.5
2017-Jun-18 17:30N 40°46' W 074°00'2 4.8
2017-Jun-18 17:00N 40°49' W 073°59'0 0.0
2017-Jun-18 16:30N 40°49' W 073°59'0 0.0
2017-Jun-18 16:00N 40°49' W 073°59'3 5.1
2017-Jun-18 15:30N 40°46' W 074°00'0 0.0
2017-Jun-18 15:00N 40°46' W 074°00'0 0.0
2017-Jun-18 14:00N 40°46' W 074°00'0 0.0
2017-Jun-18 13:30N 40°46' W 074°00'0 0.0
2017-Jun-18 13:00N 40°46' W 074°00'0 0.0
2017-Jun-18 12:30N 40°46' W 074°00'0 0.0
2017-Jun-18 12:00N 40°46' W 074°00'0 0.1
2017-Jun-18 11:30N 40°46' W 074°00'0 0.1
2017-Jun-18 11:00N 40°46' W 074°00'0 0.0
2017-Jun-18 10:30N 40°46' W 074°00'2 3.3
2017-Jun-18 10:00N 40°45' W 074°01'2 3.3
2017-Jun-18 09:30N 40°46' W 074°00'0 0.0
2017-Jun-18 09:00N 40°46' W 074°00'0 0.0
2017-Jun-18 08:30N 40°46' W 074°00'0 0.0
2017-Jun-18 08:00N 40°46' W 074°00'0 0.0
2017-Jun-18 07:30N 40°46' W 074°00'0 0.0
2017-Jun-18 07:00N 40°46' W 074°00'0 0.0
2017-Jun-18 06:30N 40°46' W 074°00'0 0.0
2017-Jun-18 06:00N 40°46' W 074°00'2 3.1
2017-Jun-18 05:30N 40°45' W 074°01'4 8.1
2017-Jun-18 05:00N 40°49' W 073°59'1 2.2
2017-Jun-18 04:30N 40°48' W 073°59'1 2.9
2017-Jun-18 04:00N 40°46' W 074°00'0 0.0
2017-Jun-18 03:30N 40°46' W 074°00'0 0.0
2017-Jun-18 03:00N 40°46' W 074°00'0 0.0
2017-Jun-18 02:30N 40°46' W 074°00'0 0.0
2017-Jun-18 02:00N 40°46' W 074°00'0 0.0
2017-Jun-18 01:30N 40°46' W 074°00'0 0.0
2017-Jun-18 01:00N 40°46' W 074°00'0 0.0
2017-Jun-18 00:30N 40°46' W 074°00'0 0.0
2017-Jun-18 00:00N 40°46' W 074°00'0 0.0
2017-Jun-17 23:30N 40°46' W 074°00'0 0.0
2017-Jun-17 23:00N 40°46' W 074°00'0 0.0
2017-Jun-17 22:30N 40°46' W 074°00'0 0.6
2017-Jun-17 22:00N 40°46' W 074°00'0 0.6
2017-Jun-17 21:30N 40°46' W 074°00'2 3.4
2017-Jun-17 21:00N 40°45' W 074°01'2 3.4
2017-Jun-17 20:30N 40°46' W 074°00'0 0.0
2017-Jun-17 20:00N 40°46' W 074°00'0 0.0
2017-Jun-17 19:30N 40°46' W 074°00'0 0.0
2017-Jun-17 19:00N 40°46' W 074°00'0 0.0
2017-Jun-17 18:30N 40°46' W 074°00'0 0.0
2017-Jun-17 18:00N 40°46' W 074°00'0 0.0
2017-Jun-17 17:30N 40°46' W 074°00'0 0.0
2017-Jun-17 17:00N 40°46' W 074°00'0 0.6
2017-Jun-17 16:30N 40°47' W 074°00'0 0.5
2017-Jun-17 16:00N 40°47' W 073°60'2 4.5
2017-Jun-17 15:30N 40°45' W 074°01'2 3.3
2017-Jun-17 15:00N 40°46' W 074°00'0 0.0
2017-Jun-17 14:00N 40°46' W 074°00'0 0.0
2017-Jun-17 13:30N 40°46' W 074°00'0 0.4
2017-Jun-17 13:00N 40°46' W 074°00'1 1.9
2017-Jun-17 12:30N 40°47' W 073°60'0 0.6
2017-Jun-17 12:00N 40°47' W 073°60'0 0.9
2017-Jun-17 11:30N 40°46' W 074°00'0 0.0
2017-Jun-17 11:00N 40°46' W 074°00'0 0.0
2017-Jun-17 10:30N 40°46' W 074°00'0 0.0
2017-Jun-17 10:00N 40°46' W 074°00'0 0.0
2017-Jun-17 09:30N 40°46' W 074°00'0 0.0
2017-Jun-17 09:00N 40°46' W 074°00'0 0.0
2017-Jun-17 08:30N 40°46' W 074°00'0 0.0
2017-Jun-17 08:00N 40°46' W 074°00'0 0.0
2017-Jun-17 07:30N 40°46' W 074°00'0 0.0
2017-Jun-17 07:00N 40°46' W 074°00'0 0.0
2017-Jun-17 06:30N 40°46' W 074°00'0 0.0
2017-Jun-17 06:00N 40°46' W 074°00'0 0.0
2017-Jun-17 05:30N 40°46' W 074°00'0 0.0
2017-Jun-17 05:00N 40°46' W 074°00'0 0.0
2017-Jun-17 04:30N 40°46' W 074°00'0 0.0
2017-Jun-17 04:00N 40°46' W 074°00'0 0.0
2017-Jun-17 03:30N 40°46' W 074°00'0 0.0
2017-Jun-17 03:00N 40°46' W 074°00'0 0.6
2017-Jun-17 02:30N 40°46' W 074°00'2 4.0
2017-Jun-17 02:00N 40°48' W 073°59'3 6.0
2017-Jun-17 01:30N 40°46' W 074°01'3 6.0
2017-Jun-17 01:00N 40°43' W 074°02'3 5.8
2017-Jun-17 00:30N 40°40' W 074°04'2 4.6
2017-Jun-17 00:00N 40°42' W 074°02'4 8.8
2017-Jun-16 23:30N 40°46' W 074°00'0 0.0
2017-Jun-16 23:01N 40°46' W 074°00'0 0.0
2017-Jun-16 22:30N 40°46' W 074°00'0 0.6
2017-Jun-16 22:00N 40°46' W 074°00'4 7.6
2017-Jun-16 21:30N 40°42' W 074°02'2 5.0
2017-Jun-16 21:00N 40°41' W 074°05'0 0.0
2017-Jun-16 20:31N 40°41' W 074°05'0 0.0
2017-Jun-16 20:00N 40°41' W 074°05'0 0.0
2017-Jun-16 19:30N 40°41' W 074°05'0 0.0
2017-Jun-16 19:00N 40°41' W 074°05'0 0.0
2017-Jun-16 18:31N 40°41' W 074°05'0 0.0
2017-Jun-16 18:00N 40°41' W 074°05'0 0.0
2017-Jun-16 17:30N 40°41' W 074°05'0 0.0
2017-Jun-16 17:00N 40°41' W 074°05'0 0.0
2017-Jun-16 16:30N 40°41' W 074°05'0 0.0
2017-Jun-16 16:00N 40°41' W 074°05'0 0.0
2017-Jun-16 15:30N 40°41' W 074°05'0 0.0
2017-Jun-16 15:00N 40°41' W 074°05'3 5.9
2017-Jun-16 14:31N 40°43' W 074°02'3 3.5
2017-Jun-16 13:31N 40°46' W 074°00'0 0.0
2017-Jun-16 13:00N 40°46' W 074°00'0 0.0
2017-Jun-16 12:30N 40°46' W 074°00'0 0.0
2017-Jun-16 12:00N 40°46' W 074°00'0 0.0
2017-Jun-16 11:30N 40°46' W 074°00'0 0.0
2017-Jun-16 11:00N 40°46' W 074°00'0 0.0
2017-Jun-16 10:30N 40°46' W 074°00'0 0.6
2017-Jun-16 10:00N 40°46' W 074°00'0 0.6
2017-Jun-16 09:30N 40°46' W 074°00'0 0.0
2017-Jun-16 09:00N 40°46' W 074°00'0 0.0
2017-Jun-16 08:30N 40°46' W 074°00'0 0.0
2017-Jun-16 08:00N 40°46' W 074°00'0 0.0
2017-Jun-16 07:30N 40°46' W 074°00'0 0.0
2017-Jun-16 07:00N 40°46' W 074°00'0 0.0
2017-Jun-16 06:30N 40°46' W 074°00'0 0.1
2017-Jun-16 06:00N 40°46' W 074°00'0 0.0
2017-Jun-16 05:30N 40°46' W 074°00'0 0.6
2017-Jun-16 05:00N 40°47' W 074°00'1 1.7
2017-Jun-16 04:30N 40°47' W 073°60'1 2.1
2017-Jun-16 04:00N 40°46' W 074°00'0 0.6
2017-Jun-16 03:30N 40°46' W 074°00'0 0.6
2017-Jun-16 03:00N 40°46' W 074°00'3 5.6
2017-Jun-16 02:30N 40°44' W 074°01'4 8.0
2017-Jun-16 02:00N 40°41' W 074°05'2 4.4
2017-Jun-16 01:30N 40°41' W 074°02'5 9.2
2017-Jun-16 01:00N 40°46' W 074°01'3 6.1
2017-Jun-16 00:30N 40°49' W 073°59'3 5.0
2017-Jun-16 00:00N 40°46' W 074°00'0 0.1
2017-Jun-15 23:30N 40°46' W 074°00'0 0.9
2017-Jun-15 23:00N 40°46' W 074°00'0 0.9
2017-Jun-15 22:30N 40°46' W 074°00'0 0.0
2017-Jun-15 22:00N 40°46' W 074°00'0 0.0
2017-Jun-15 21:30N 40°46' W 074°00'0 0.0
2017-Jun-15 21:01N 40°46' W 074°00'0 0.0
2017-Jun-15 20:30N 40°46' W 074°00'0 0.0
2017-Jun-15 20:00N 40°46' W 074°00'2 3.3
2017-Jun-15 19:31N 40°45' W 074°01'2 3.3
2017-Jun-15 19:00N 40°46' W 074°00'0 0.0
2017-Jun-15 18:30N 40°46' W 074°00'0 0.0
2017-Jun-15 18:00N 40°46' W 074°00'0 0.0
2017-Jun-15 17:30N 40°46' W 074°00'0 0.1
2017-Jun-15 17:00N 40°46' W 074°00'0 0.1
2017-Jun-15 16:31N 40°46' W 074°00'0 0.1
2017-Jun-15 16:00N 40°46' W 074°00'0 0.1
2017-Jun-15 15:30N 40°46' W 074°00'2 3.3
2017-Jun-15 15:00N 40°45' W 074°01'2 3.3
2017-Jun-15 14:30N 40°46' W 074°00'0 0.0
2017-Jun-15 13:30N 40°46' W 074°00'0 0.0
2017-Jun-15 12:59N 40°46' W 074°00'0 0.0
2017-Jun-15 12:30N 40°46' W 074°00'1 1.4
2017-Jun-15 12:00N 40°46' W 074°01'1 1.4
2017-Jun-15 11:30N 40°46' W 074°00'0 0.0
2017-Jun-15 11:00N 40°46' W 074°00'2 3.2
2017-Jun-15 10:30N 40°45' W 074°01'2 3.2
2017-Jun-15 10:00N 40°46' W 074°00'0 0.0
2017-Jun-15 09:30N 40°46' W 074°00'0 0.0
2017-Jun-15 09:00N 40°46' W 074°00'0 0.0
2017-Jun-15 08:30N 40°46' W 074°00'0 0.0
2017-Jun-15 08:00N 40°46' W 074°00'0 0.0
2017-Jun-15 07:30N 40°46' W 074°00'0 0.0
2017-Jun-15 07:00N 40°46' W 074°00'0 0.0
2017-Jun-15 06:30N 40°46' W 074°00'0 0.1
2017-Jun-15 06:00N 40°46' W 074°00'0 0.0
2017-Jun-15 05:30N 40°46' W 074°00'2 3.2
2017-Jun-15 05:00N 40°48' W 073°59'1 1.8
2017-Jun-15 04:30N 40°49' W 073°59'0 0.0
2017-Jun-15 04:00N 40°49' W 073°59'1 2.8
2017-Jun-15 03:30N 40°47' W 073°59'1 2.3
2017-Jun-15 03:00N 40°46' W 074°00'0 0.0
2017-Jun-15 02:30N 40°46' W 074°00'0 0.0
2017-Jun-15 02:00N 40°46' W 074°00'0 0.0
2017-Jun-15 01:30N 40°46' W 074°00'0 0.0
2017-Jun-15 01:00N 40°46' W 074°00'0 0.0
2017-Jun-15 00:30N 40°46' W 074°00'0 0.0
2017-Jun-15 00:00N 40°46' W 074°00'0 0.0
2017-Jun-14 23:30N 40°46' W 074°00'0 0.2
2017-Jun-14 23:01N 40°46' W 074°00'0 0.2
2017-Jun-14 22:30N 40°46' W 074°00'0 0.2
2017-Jun-14 22:00N 40°46' W 074°00'0 0.2
2017-Jun-14 21:30N 40°46' W 074°00'0 0.0
2017-Jun-14 21:00N 40°46' W 074°00'0 0.0
2017-Jun-14 20:30N 40°46' W 074°00'0 0.1
2017-Jun-14 20:00N 40°46' W 074°00'0 0.1
2017-Jun-14 19:30N 40°46' W 074°00'1 2.4
2017-Jun-14 19:00N 40°47' W 073°60'1 2.6
2017-Jun-14 18:30N 40°49' W 073°59'2 4.8
2017-Jun-14 18:00N 40°46' W 074°00'0 0.1
2017-Jun-14 17:30N 40°46' W 074°00'0 0.1
2017-Jun-14 17:00N 40°46' W 074°00'2 3.3
2017-Jun-14 16:30N 40°45' W 074°01'2 3.4
2017-Jun-14 16:00N 40°46' W 074°00'3 6.5
2017-Jun-14 15:30N 40°43' W 074°01'3 6.5
2017-Jun-14 15:00N 40°40' W 074°04'1 0.8
2017-Jun-14 14:00N 40°41' W 074°05'0 0.0
2017-Jun-14 13:30N 40°41' W 074°05'2 4.9
2017-Jun-14 13:00N 40°42' W 074°02'510.3
2017-Jun-14 12:30N 40°47' W 074°00'1 2.0
2017-Jun-14 12:00N 40°48' W 073°59'2 3.0
2017-Jun-14 11:30N 40°46' W 074°00'0 0.0
2017-Jun-14 11:00N 40°46' W 074°00'0 0.0
2017-Jun-14 10:30N 40°46' W 074°00'0 0.6
2017-Jun-14 10:00N 40°46' W 074°00'0 0.6
2017-Jun-14 09:30N 40°46' W 074°00'0 0.0
2017-Jun-14 09:00N 40°46' W 074°00'0 0.0
2017-Jun-14 08:30N 40°46' W 074°00'0 0.0
2017-Jun-14 08:00N 40°46' W 074°00'0 0.0
2017-Jun-14 07:30N 40°46' W 074°00'0 0.0
2017-Jun-14 07:00N 40°46' W 074°00'0 0.0
2017-Jun-14 06:30N 40°46' W 074°00'2 3.3
2017-Jun-14 06:00N 40°48' W 073°59'1 1.7
2017-Jun-14 05:31N 40°49' W 073°59'0 0.0
2017-Jun-14 05:00N 40°49' W 073°59'0 0.0
2017-Jun-14 04:31N 40°49' W 073°59'0 0.0
2017-Jun-14 04:00N 40°49' W 073°59'0 0.0
2017-Jun-14 03:30N 40°49' W 073°59'0 0.1
2017-Jun-14 03:01N 40°49' W 073°59'0 0.0
2017-Jun-14 02:30N 40°49' W 073°59'3 5.1
2017-Jun-14 02:00N 40°46' W 074°00'0 0.1
2017-Jun-14 01:30N 40°46' W 074°00'0 0.0
2017-Jun-14 01:00N 40°46' W 074°00'0 0.1
2017-Jun-14 00:30N 40°46' W 074°00'0 0.2
2017-Jun-14 00:01N 40°46' W 074°00'0 0.1
2017-Jun-13 23:31N 40°46' W 074°00'0 0.0
2017-Jun-13 23:00N 40°46' W 074°00'0 0.0
2017-Jun-13 22:30N 40°46' W 074°00'0 0.0
2017-Jun-13 22:00N 40°46' W 074°00'0 0.0
2017-Jun-13 21:30N 40°46' W 074°00'0 0.0
2017-Jun-13 21:00N 40°46' W 074°00'2 4.9
2017-Jun-13 20:31N 40°44' W 074°01'3 6.3
2017-Jun-13 20:01N 40°41' W 074°02'2 3.4
2017-Jun-13 19:30N 40°41' W 074°05'0 0.0
2017-Jun-13 19:00N 40°41' W 074°05'0 0.0
2017-Jun-13 18:31N 40°41' W 074°05'0 0.0
2017-Jun-13 18:00N 40°41' W 074°05'0 0.0
2017-Jun-13 17:30N 40°41' W 074°05'0 0.0
2017-Jun-13 17:00N 40°41' W 074°05'0 0.0
2017-Jun-13 16:31N 40°41' W 074°05'0 0.0
2017-Jun-13 16:01N 40°41' W 074°05'0 0.0
2017-Jun-13 15:31N 40°41' W 074°05'0 0.0
2017-Jun-13 15:01N 40°41' W 074°05'0 0.0
2017-Jun-13 14:00N 40°41' W 074°05'1 1.1
2017-Jun-13 13:31N 40°40' W 074°04'4 7.6
2017-Jun-13 13:00N 40°44' W 074°01'3 5.5
2017-Jun-13 12:30N 40°46' W 074°00'0 0.0
2017-Jun-13 12:00N 40°46' W 074°00'2 3.7
2017-Jun-13 11:30N 40°48' W 073°59'2 3.8
2017-Jun-13 11:01N 40°46' W 074°00'0 0.6
2017-Jun-13 10:30N 40°46' W 074°00'0 0.0
2017-Jun-13 10:00N 40°46' W 074°00'0 0.6
2017-Jun-13 09:31N 40°46' W 074°00'0 0.0
2017-Jun-13 09:00N 40°46' W 074°00'0 0.0
2017-Jun-13 08:30N 40°46' W 074°00'0 0.0
2017-Jun-13 08:00N 40°46' W 074°00'0 0.0
2017-Jun-13 07:30N 40°46' W 074°00'0 0.0
2017-Jun-13 07:00N 40°46' W 074°00'0 0.0
2017-Jun-13 06:30N 40°46' W 074°00'1 1.0
2017-Jun-13 06:00N 40°47' W 073°60'2 4.0
2017-Jun-13 05:30N 40°49' W 073°59'2 4.1
2017-Jun-13 05:00N 40°47' W 073°60'2 4.1
2017-Jun-13 04:30N 40°49' W 073°59'3 5.1
2017-Jun-13 04:00N 40°46' W 074°00'0 0.0
2017-Jun-13 03:30N 40°46' W 074°00'0 0.0
2017-Jun-13 03:00N 40°46' W 074°00'0 0.0
2017-Jun-13 02:30N 40°46' W 074°00'0 0.0
2017-Jun-13 02:00N 40°46' W 074°00'0 0.0
2017-Jun-13 01:30N 40°46' W 074°00'0 0.0
2017-Jun-13 01:00N 40°46' W 074°00'3 5.0
2017-Jun-13 00:30N 40°49' W 073°59'3 5.1
2017-Jun-13 00:00N 40°46' W 074°00'0 0.0
2017-Jun-12 23:30N 40°46' W 074°00'0 0.0
2017-Jun-12 23:00N 40°46' W 074°00'0 0.0
2017-Jun-12 22:30N 40°46' W 074°00'0 0.1
2017-Jun-12 22:00N 40°46' W 074°00'0 0.1
2017-Jun-12 21:30N 40°46' W 074°00'0 0.0
2017-Jun-12 21:00N 40°46' W 074°00'0 0.0
2017-Jun-12 20:30N 40°46' W 074°00'0 0.0
2017-Jun-12 20:00N 40°46' W 074°00'0 0.0
2017-Jun-12 19:30N 40°46' W 074°00'0 0.0
2017-Jun-12 18:59N 40°46' W 074°00'3 5.2
2017-Jun-12 18:30N 40°49' W 073°59'2 3.7
2017-Jun-12 18:00N 40°47' W 073°60'4 7.8
2017-Jun-12 17:30N 40°43' W 074°02'3 6.8
2017-Jun-12 17:00N 40°40' W 074°04'0 0.6
2017-Jun-12 16:30N 40°40' W 074°04'3 6.8
2017-Jun-12 16:00N 40°43' W 074°02'3 6.7
2017-Jun-12 15:30N 40°46' W 074°00'0 0.0
2017-Jun-12 15:00N 40°46' W 074°00'0 0.0
2017-Jun-12 14:30N 40°46' W 074°00'  

Dump ship's entire track history